createdAt,value
2019-05-14T00:02:04.414Z,64.60
2019-05-14T00:04:32.915Z,64.60
2019-05-14T00:07:01.133Z,64.60
2019-05-14T00:09:32.174Z,64.60
2019-05-14T00:12:02.776Z,64.60
2019-05-14T00:14:39.555Z,64.60
2019-05-14T00:17:03.124Z,64.60
2019-05-14T00:19:31.824Z,64.60
2019-05-14T00:21:59.339Z,64.60
2019-05-14T00:24:26.289Z,64.60
2019-05-14T00:26:53.381Z,64.60
2019-05-14T00:29:24.287Z,64.60
2019-05-14T00:31:55.215Z,64.60
2019-05-14T00:34:23.319Z,64.60
2019-05-14T00:36:52.427Z,64.60
2019-05-14T00:39:22.427Z,64.60
2019-05-14T00:41:51.217Z,64.50
2019-05-14T00:44:26.155Z,64.50
2019-05-14T00:46:58.892Z,64.70
2019-05-14T00:49:26.002Z,64.60
2019-05-14T00:51:55.043Z,64.60
2019-05-14T00:54:24.242Z,64.60
2019-05-14T00:56:52.632Z,64.60
2019-05-14T00:59:27.730Z,64.60
2019-05-14T01:01:57.715Z,64.60
2019-05-14T01:04:25.343Z,64.60
2019-05-14T01:06:52.249Z,64.50
2019-05-14T01:09:18.982Z,64.60
2019-05-14T01:11:45.994Z,64.60
2019-05-14T01:14:12.973Z,64.60
2019-05-14T01:16:42.249Z,64.60
2019-05-14T01:19:12.384Z,64.50
2019-05-14T01:21:41.718Z,64.50
2019-05-14T01:24:09.222Z,64.50
2019-05-14T01:26:37.799Z,64.60
2019-05-14T01:29:08.507Z,64.60
2019-05-14T01:31:45.604Z,65.40
2019-05-14T01:34:16.668Z,64.60
2019-05-14T01:36:44.666Z,64.50
2019-05-14T01:39:15.480Z,64.50
2019-05-14T01:41:43.880Z,64.50
2019-05-14T01:44:16.748Z,64.50
2019-05-14T01:46:43.730Z,64.60
2019-05-14T01:49:12.034Z,64.50
2019-05-14T01:51:45.566Z,65.30
2019-05-14T01:54:13.754Z,64.50
2019-05-14T01:56:42.428Z,64.50
2019-05-14T01:59:18.682Z,64.60
2019-05-14T02:01:46.364Z,64.50
2019-05-14T02:04:14.213Z,64.60
2019-05-14T02:06:41.729Z,64.50
2019-05-14T02:09:11.108Z,64.50
2019-05-14T02:11:38.327Z,64.60
2019-05-14T02:14:05.703Z,64.50
2019-05-14T02:16:33.117Z,64.50
2019-05-14T02:19:01.853Z,64.50
2019-05-14T02:21:31.679Z,64.50
2019-05-14T02:24:11.342Z,64.60
2019-05-14T02:26:39.251Z,64.50
2019-05-14T02:29:09.535Z,64.40
2019-05-14T02:31:39.334Z,64.50
2019-05-14T02:34:09.911Z,64.50
2019-05-14T02:36:41.055Z,64.40
2019-05-14T02:39:10.227Z,64.50
2019-05-14T02:41:39.097Z,64.50
2019-05-14T02:44:10.153Z,64.40
2019-05-14T02:46:50.243Z,64.30
2019-05-14T02:49:19.270Z,64.30
2019-05-14T02:51:45.603Z,64.40
2019-05-14T02:54:12.801Z,64.40
2019-05-14T02:56:40.511Z,64.40
2019-05-14T02:59:09.694Z,64.40
2019-05-14T03:01:40.614Z,64.40
2019-05-14T03:04:09.059Z,64.40
2019-05-14T03:06:39.429Z,64.30
2019-05-14T03:09:09.693Z,64.30
2019-05-14T03:11:40.433Z,64.20
2019-05-14T03:14:10.353Z,64.30
2019-05-14T03:16:40.355Z,64.20
2019-05-14T03:19:11.877Z,64.30
2019-05-14T03:21:40.303Z,64.30
2019-05-14T03:24:28.894Z,64.30
2019-05-14T03:26:58.714Z,64.20
2019-05-14T03:29:26.357Z,64.20
2019-05-14T03:32:02.811Z,64.30
2019-05-14T03:34:41.158Z,64.30
2019-05-14T03:37:14.221Z,64.30
2019-05-14T03:39:51.294Z,64.30
2019-05-14T03:42:19.695Z,64.30
2019-05-14T03:44:49.029Z,64.30
2019-05-14T03:47:19.340Z,64.30
2019-05-14T03:49:52.364Z,64.20
2019-05-14T03:52:24.319Z,64.30
2019-05-14T03:55:01.151Z,64.30
2019-05-14T03:57:40.539Z,64.30
2019-05-14T04:00:13.813Z,64.30
2019-05-14T04:02:40.908Z,64.20
2019-05-14T04:05:11.831Z,64.20
2019-05-14T04:07:54.123Z,64.20
2019-05-14T04:10:49.126Z,64.20
2019-05-14T04:13:19.835Z,64.30
2019-05-14T04:15:49.724Z,64.20
2019-05-14T04:18:22.625Z,64.20
2019-05-14T04:20:51.932Z,64.20
2019-05-14T04:23:21.512Z,64.20
2019-05-14T04:25:49.833Z,64.30
2019-05-14T04:28:19.418Z,64.20
2019-05-14T04:30:49.346Z,64.20
2019-05-14T04:33:18.923Z,64.20
2019-05-14T04:35:49.065Z,64.10
2019-05-14T04:38:16.348Z,64.20
2019-05-14T04:40:43.747Z,64.20
2019-05-14T04:43:10.681Z,64.20
2019-05-14T04:45:51.142Z,64.30
2019-05-14T04:48:44.203Z,64.30
2019-05-14T04:51:25.606Z,64.30
2019-05-14T04:53:52.740Z,64.30
2019-05-14T04:56:19.961Z,64.30
2019-05-14T04:58:49.606Z,64.30
2019-05-14T05:01:15.967Z,64.30
2019-05-14T05:03:44.713Z,64.30
2019-05-14T05:06:13.953Z,64.30
2019-05-14T05:08:41.656Z,64.30
2019-05-14T05:11:09.602Z,64.30
2019-05-14T05:13:41.838Z,64.40
2019-05-14T05:16:12.066Z,64.30
2019-05-14T05:18:40.032Z,64.40
2019-05-14T05:21:08.668Z,64.40
2019-05-14T05:23:35.893Z,64.20
2019-05-14T05:26:03.092Z,64.20
2019-05-14T05:28:30.278Z,64.40
2019-05-14T05:30:58.535Z,64.40
2019-05-14T05:33:29.156Z,64.30
2019-05-14T05:38:48.726Z,64.40
2019-05-14T05:41:14.483Z,64.40
2019-05-14T05:43:41.646Z,64.40
2019-05-14T05:46:08.858Z,64.30
2019-05-14T05:48:35.994Z,64.40
2019-05-14T05:51:02.969Z,64.60
2019-05-14T05:53:30.374Z,64.50
2019-05-14T05:55:59.250Z,64.40
2019-05-14T05:58:29.606Z,64.50
2019-05-14T06:00:54.807Z,64.40
2019-05-14T06:03:21.750Z,64.40
2019-05-14T06:05:49.238Z,64.40
2019-05-14T06:08:18.904Z,64.30
2019-05-14T06:10:45.648Z,64.30
2019-05-14T06:13:14.102Z,64.30
2019-05-14T06:15:48.301Z,64.20
2019-05-14T06:18:17.331Z,64.40
2019-05-14T06:20:39.089Z,64.30
2019-05-14T06:23:08.291Z,64.30
2019-05-14T06:25:35.050Z,64.30
2019-05-14T06:30:52.542Z,64.30
2019-05-14T06:33:19.797Z,64.30
2019-05-14T06:35:48.569Z,64.30
2019-05-14T06:41:05.112Z,64.50
2019-05-14T06:43:32.129Z,64.40
2019-05-14T06:45:59.902Z,64.50
2019-05-14T06:48:33.726Z,64.50
2019-05-14T06:50:58.222Z,64.60
2019-05-14T06:53:25.666Z,64.60
2019-05-14T06:56:10.646Z,64.60
2019-05-14T06:58:42.288Z,64.70
2019-05-14T07:01:09.926Z,64.70
2019-05-14T07:03:38.236Z,64.70
2019-05-14T07:06:06.039Z,64.70
2019-05-14T07:08:33.229Z,64.70
2019-05-14T07:11:00.459Z,64.80
2019-05-14T07:13:29.742Z,64.90
2019-05-14T07:15:58.348Z,64.80
2019-05-14T07:18:28.096Z,64.80
2019-05-14T07:20:55.603Z,64.90
2019-05-14T07:23:23.328Z,64.90
2019-05-14T07:25:50.529Z,64.90
2019-05-14T07:28:20.787Z,64.90
2019-05-14T07:30:48.536Z,65.00
2019-05-14T07:33:18.161Z,64.90
2019-05-14T07:35:44.509Z,64.90
2019-05-14T07:38:11.496Z,65.00
2019-05-14T07:40:39.190Z,65.00
2019-05-14T07:43:11.473Z,65.00
2019-05-14T07:45:38.705Z,65.10
2019-05-14T07:48:05.983Z,65.10
2019-05-14T07:50:34.957Z,65.10
2019-05-14T07:56:01.457Z,65.00
2019-05-14T07:58:30.344Z,65.10
2019-05-14T08:01:02.443Z,65.20
2019-05-14T08:03:43.090Z,65.10
2019-05-14T08:06:15.391Z,65.20
2019-05-14T08:08:52.602Z,65.10
2019-05-14T08:11:23.638Z,65.10
2019-05-14T08:13:51.627Z,65.20
2019-05-14T08:16:19.018Z,65.20
2019-05-14T08:18:48.804Z,65.20
2019-05-14T08:21:19.763Z,65.30
2019-05-14T08:23:48.178Z,65.20
2019-05-14T08:26:19.067Z,65.30
2019-05-14T08:28:48.865Z,65.10
2019-05-14T08:31:15.649Z,65.20
2019-05-14T08:33:43.044Z,65.30
2019-05-14T08:36:10.871Z,65.30
2019-05-14T08:38:52.991Z,65.30
2019-05-14T08:41:24.343Z,65.30
2019-05-14T08:46:49.911Z,65.30
2019-05-14T08:49:20.955Z,65.30
2019-05-14T08:51:50.528Z,65.30
2019-05-14T08:54:28.385Z,65.30
2019-05-14T08:57:09.341Z,65.30
2019-05-14T08:59:39.586Z,65.30
2019-05-14T09:02:10.503Z,65.30
2019-05-14T09:04:42.653Z,65.40
2019-05-14T09:07:09.719Z,65.40
2019-05-14T09:09:38.314Z,65.30
2019-05-14T09:12:05.371Z,65.40
2019-05-14T09:14:48.810Z,65.30
2019-05-14T09:17:20.211Z,65.40
2019-05-14T09:20:02.460Z,65.30
2019-05-14T09:22:22.182Z,65.40
2019-05-14T09:25:00.885Z,65.40
2019-05-14T09:27:31.029Z,65.30
2019-05-14T09:29:58.935Z,65.30
2019-05-14T09:32:28.935Z,65.30
2019-05-14T09:34:55.820Z,65.30
2019-05-14T09:37:22.829Z,65.30
2019-05-14T09:39:49.793Z,65.40
2019-05-14T09:42:19.567Z,65.30
2019-05-14T09:44:45.556Z,65.40
2019-05-14T09:47:12.310Z,65.30
2019-05-14T09:49:39.312Z,65.40
2019-05-14T09:52:06.252Z,65.40
2019-05-14T09:54:33.098Z,65.40
2019-05-14T09:57:01.602Z,65.40
2019-05-14T09:59:29.012Z,65.30
2019-05-14T10:02:00.084Z,65.40
2019-05-14T10:04:39.989Z,65.30
2019-05-14T10:07:08.749Z,65.40
2019-05-14T10:09:42.382Z,65.30
2019-05-14T10:12:18.196Z,65.30
2019-05-14T10:14:48.532Z,65.40
2019-05-14T10:17:19.165Z,65.40
2019-05-14T10:19:49.788Z,65.40
2019-05-14T10:22:19.895Z,65.40
2019-05-14T10:24:47.350Z,65.40
2019-05-14T10:27:14.846Z,65.40
2019-05-14T10:29:42.000Z,65.50
2019-05-14T10:32:09.253Z,65.40
2019-05-14T10:34:36.405Z,65.30
2019-05-14T10:37:03.203Z,65.50
2019-05-14T10:42:25.766Z,65.50
2019-05-14T10:45:12.745Z,65.40
2019-05-14T10:47:42.097Z,65.50
2019-05-14T10:50:13.858Z,65.40
2019-05-14T10:52:39.648Z,65.40
2019-05-14T10:55:08.008Z,65.40
2019-05-14T10:57:46.631Z,65.40
2019-05-14T11:00:20.949Z,65.40
2019-05-14T11:02:51.187Z,65.40
2019-05-14T11:05:19.239Z,65.40
2019-05-14T11:07:51.947Z,65.40
2019-05-14T11:10:20.597Z,65.40
2019-05-14T11:12:55.010Z,65.40
2019-05-14T11:15:20.709Z,65.40
2019-05-14T11:17:48.844Z,65.30
2019-05-14T11:20:15.854Z,65.40
2019-05-14T11:22:49.226Z,65.30
2019-05-14T11:25:28.660Z,65.30
2019-05-14T11:28:02.018Z,65.40
2019-05-14T11:30:43.981Z,65.40
2019-05-14T11:33:13.337Z,65.40
2019-05-14T11:35:42.693Z,65.40
2019-05-14T11:38:28.023Z,65.40
2019-05-14T11:40:41.341Z,65.60
2019-05-14T11:43:08.648Z,65.50
2019-05-14T11:45:39.027Z,65.50
2019-05-14T11:48:08.902Z,65.50
2019-05-14T11:50:36.374Z,65.60
2019-05-14T11:53:03.666Z,65.50
2019-05-14T11:55:31.310Z,65.40
2019-05-14T11:58:03.576Z,65.60
2019-05-14T12:00:31.256Z,65.50
2019-05-14T12:03:20.000Z,65.60
2019-05-14T12:05:49.392Z,65.50
2019-05-14T12:08:18.573Z,65.50
2019-05-14T12:10:46.077Z,65.50
2019-05-14T12:13:12.954Z,65.40
2019-05-14T12:15:40.110Z,65.50
2019-05-14T12:18:10.353Z,65.40
2019-05-14T12:20:39.630Z,65.40
2019-05-14T12:23:08.855Z,65.40
2019-05-14T12:25:35.891Z,65.20
2019-05-14T12:28:13.699Z,65.30
2019-05-14T12:30:39.516Z,65.30
2019-05-14T12:33:06.989Z,65.30
2019-05-14T12:35:34.665Z,65.20
2019-05-14T12:38:02.312Z,65.20
2019-05-14T12:40:29.393Z,65.20
2019-05-14T12:42:58.709Z,65.10
2019-05-14T12:45:25.165Z,65.10
2019-05-14T12:48:05.285Z,65.00
2019-05-14T12:50:34.759Z,65.10
2019-05-14T12:53:01.847Z,65.00
2019-05-14T12:55:28.907Z,65.00
2019-05-14T12:57:59.452Z,64.90
2019-05-14T13:00:25.132Z,64.90
2019-05-14T13:03:01.729Z,64.90
2019-05-14T13:05:33.173Z,64.90
2019-05-14T13:08:02.014Z,64.80
2019-05-14T13:10:35.214Z,64.80
2019-05-14T13:13:08.731Z,64.80
2019-05-14T13:15:39.266Z,64.80
2019-05-14T13:18:08.996Z,64.70
2019-05-14T13:20:38.678Z,64.70
2019-05-14T13:23:05.002Z,64.60
2019-05-14T13:25:39.022Z,64.60
2019-05-14T13:28:08.812Z,64.60
2019-05-14T13:30:37.347Z,64.60
2019-05-14T13:33:04.921Z,64.50
2019-05-14T13:35:33.409Z,64.60
2019-05-14T13:38:02.676Z,64.50
2019-05-14T13:43:20.385Z,64.50
2019-05-14T13:45:49.539Z,64.30
2019-05-14T13:48:18.815Z,64.40
2019-05-14T13:50:48.786Z,64.40
2019-05-14T13:53:14.876Z,64.40
2019-05-14T13:55:46.422Z,64.30
2019-05-14T13:58:10.638Z,64.20
2019-05-14T14:00:37.563Z,64.30
2019-05-14T14:03:04.648Z,64.30
2019-05-14T14:05:31.668Z,64.20
2019-05-14T14:07:59.004Z,64.20
2019-05-14T14:10:31.455Z,64.10
2019-05-14T14:12:59.590Z,64.20
2019-05-14T14:15:26.116Z,64.10
2019-05-14T14:17:53.955Z,64.10
2019-05-14T14:20:20.937Z,64.10
2019-05-14T14:22:53.534Z,64.10
2019-05-14T14:25:21.102Z,64.10
2019-05-14T14:27:49.771Z,64.80
2019-05-14T14:30:19.507Z,64.10
2019-05-14T14:32:45.947Z,64.00
2019-05-14T14:35:13.272Z,63.90
2019-05-14T14:40:35.305Z,63.90
2019-05-14T14:43:02.738Z,63.90
2019-05-14T14:45:30.077Z,63.90
2019-05-14T14:48:04.054Z,63.90
2019-05-14T14:50:45.587Z,63.80
2019-05-14T14:53:20.098Z,63.80
2019-05-14T14:55:49.941Z,63.80
2019-05-14T14:58:20.019Z,64.00
2019-05-14T15:03:44.286Z,63.90
2019-05-14T15:06:11.959Z,63.80
2019-05-14T15:08:39.229Z,63.80
2019-05-14T15:11:08.609Z,63.80
2019-05-14T15:13:38.578Z,63.70
2019-05-14T15:16:07.491Z,63.60
2019-05-14T15:18:34.522Z,63.60
2019-05-14T15:21:01.325Z,63.60
2019-05-14T15:23:28.821Z,63.70
2019-05-14T15:25:58.377Z,63.60
2019-05-14T15:28:25.943Z,63.70
2019-05-14T15:30:54.596Z,63.60
2019-05-14T15:33:22.964Z,63.50
2019-05-14T15:35:50.176Z,63.50
2019-05-14T15:38:17.220Z,63.50
2019-05-14T15:40:44.635Z,63.40
2019-05-14T15:43:11.610Z,63.50
2019-05-14T15:45:38.715Z,63.60
2019-05-14T15:48:08.712Z,63.50
2019-05-14T15:50:38.609Z,63.40
2019-05-14T15:53:04.346Z,63.50
2019-05-14T15:55:31.538Z,63.50
2019-05-14T15:57:59.103Z,63.40
2019-05-14T16:00:29.129Z,63.40
2019-05-14T16:02:55.491Z,63.40
2019-05-14T16:05:22.444Z,63.30
2019-05-14T16:07:49.584Z,63.30
2019-05-14T16:10:21.426Z,63.30
2019-05-14T16:12:49.376Z,63.30
2019-05-14T16:15:15.553Z,63.30
2019-05-14T16:17:49.853Z,63.20
2019-05-14T16:20:12.289Z,63.20
2019-05-14T16:22:40.247Z,63.20
2019-05-14T16:27:59.502Z,63.20
2019-05-14T16:30:28.885Z,63.10
2019-05-14T16:32:56.266Z,63.20
2019-05-14T16:35:23.429Z,63.10
2019-05-14T16:37:50.731Z,63.10
2019-05-14T16:40:19.314Z,63.00
2019-05-14T16:42:48.478Z,63.10
2019-05-14T16:45:18.597Z,63.00
2019-05-14T16:47:46.379Z,63.00
2019-05-14T16:50:13.552Z,63.10
2019-05-14T16:52:42.144Z,63.00
2019-05-14T16:55:22.998Z,63.00
2019-05-14T16:57:42.482Z,62.90
2019-05-14T17:00:23.720Z,62.90
2019-05-14T17:02:58.999Z,62.70
2019-05-14T17:05:29.951Z,62.50
2019-05-14T17:07:58.756Z,62.30
2019-05-14T17:10:31.669Z,62.10
2019-05-14T17:13:02.091Z,62.00
2019-05-14T17:15:30.525Z,61.90
2019-05-14T17:17:59.654Z,61.80
2019-05-14T17:20:49.132Z,61.80
2019-05-14T17:23:20.868Z,61.60
2019-05-14T17:26:05.632Z,61.70
2019-05-14T17:28:37.602Z,61.50
2019-05-14T17:31:05.475Z,61.50
2019-05-14T17:33:32.615Z,61.40
2019-05-14T17:35:59.827Z,61.40
2019-05-14T17:38:33.805Z,61.40
2019-05-14T17:41:09.500Z,61.50
2019-05-14T17:43:45.959Z,61.60
2019-05-14T17:46:13.654Z,61.70
2019-05-14T17:48:41.538Z,61.60
2019-05-14T17:51:13.310Z,61.70
2019-05-14T17:53:41.295Z,61.70
2019-05-14T17:56:08.735Z,61.70
2019-05-14T17:58:38.448Z,61.70
2019-05-14T18:01:05.844Z,61.70
2019-05-14T18:03:33.504Z,61.70
2019-05-14T18:08:53.666Z,61.80
2019-05-14T18:11:23.499Z,61.80
2019-05-14T18:13:50.750Z,61.80
2019-05-14T18:16:19.150Z,61.80
2019-05-14T18:18:49.477Z,61.80
2019-05-14T18:21:16.151Z,61.80
2019-05-14T18:23:43.083Z,61.80
2019-05-14T18:26:11.122Z,61.80
2019-05-14T18:28:39.251Z,61.80
2019-05-14T18:31:06.194Z,61.80
2019-05-14T18:33:33.860Z,61.70
2019-05-14T18:36:04.443Z,61.70
2019-05-14T18:38:32.730Z,61.70
2019-05-14T18:41:00.314Z,61.80
2019-05-14T18:43:31.179Z,61.80
2019-05-14T18:46:01.174Z,61.80
2019-05-14T18:48:29.125Z,61.80
2019-05-14T18:51:00.260Z,61.90
2019-05-14T18:53:29.817Z,61.90
2019-05-14T18:55:59.492Z,61.90
2019-05-14T18:58:26.240Z,61.90
2019-05-14T19:00:54.208Z,62.00
2019-05-14T19:03:21.488Z,62.00
2019-05-14T19:05:49.497Z,62.00
2019-05-14T19:08:23.446Z,62.10
2019-05-14T19:10:52.409Z,62.20
2019-05-14T19:13:20.199Z,62.10
2019-05-14T19:18:38.539Z,62.10
2019-05-14T19:21:08.861Z,62.10
2019-05-14T19:23:38.445Z,62.10
2019-05-14T19:26:09.805Z,62.10
2019-05-14T19:28:38.982Z,62.20
2019-05-14T19:31:09.172Z,62.20
2019-05-14T19:33:37.985Z,62.20
2019-05-14T19:36:08.608Z,62.20
2019-05-14T19:38:35.785Z,62.20
2019-05-14T19:41:03.208Z,62.30
2019-05-14T19:43:30.599Z,62.20
2019-05-14T19:45:59.022Z,62.20
2019-05-14T19:48:29.846Z,62.20
2019-05-14T19:50:55.567Z,62.30
2019-05-14T19:53:24.040Z,62.30
2019-05-14T19:58:43.272Z,62.30
2019-05-14T20:01:12.006Z,62.30
2019-05-14T20:03:39.241Z,62.40
2019-05-14T20:06:08.809Z,62.30
2019-05-14T20:08:35.258Z,62.40
2019-05-14T20:11:08.114Z,62.40
2019-05-14T20:13:31.161Z,62.30
2019-05-14T20:15:59.033Z,62.40
2019-05-14T20:18:58.828Z,62.50
2019-05-14T20:21:33.572Z,62.40
2019-05-14T20:24:01.560Z,62.40
2019-05-14T20:26:30.175Z,62.50
2019-05-14T20:28:59.118Z,62.50
2019-05-14T20:31:29.720Z,62.50
2019-05-14T20:33:59.038Z,62.40
2019-05-14T20:36:28.073Z,62.50
2019-05-14T20:38:54.987Z,62.50
2019-05-14T20:47:03.781Z,62.50
2019-05-14T20:49:32.546Z,62.60
2019-05-14T20:52:00.000Z,62.70
2019-05-14T20:54:28.969Z,62.50
2019-05-14T20:56:58.506Z,62.60
2019-05-14T20:59:25.490Z,62.50
2019-05-14T21:01:52.543Z,62.50
2019-05-14T21:04:20.268Z,62.60
2019-05-14T21:06:48.698Z,62.50
2019-05-14T21:09:19.019Z,62.60
2019-05-14T21:11:49.049Z,62.60
2019-05-14T21:14:18.264Z,62.60
2019-05-14T21:16:45.569Z,62.60
2019-05-14T21:19:13.577Z,62.70
2019-05-14T21:21:41.338Z,62.70
2019-05-14T21:24:10.087Z,62.60
2019-05-14T21:26:39.877Z,62.70
2019-05-14T21:29:08.131Z,62.60
2019-05-14T21:31:38.345Z,62.60
2019-05-14T21:34:08.005Z,62.70
2019-05-14T21:36:34.858Z,62.60
2019-05-14T21:39:03.252Z,62.70
2019-05-14T21:41:31.827Z,62.70
2019-05-14T21:44:01.326Z,62.70
2019-05-14T21:46:31.773Z,62.70
2019-05-14T21:48:59.945Z,62.70
2019-05-14T21:51:28.326Z,62.70
2019-05-14T21:53:58.839Z,62.60
2019-05-14T21:56:29.006Z,62.60
2019-05-14T21:58:55.586Z,62.70
2019-05-14T22:01:25.086Z,62.60
2019-05-14T22:03:53.287Z,62.70
2019-05-14T22:06:21.280Z,62.80
2019-05-14T22:08:48.978Z,62.80
2019-05-14T22:11:18.657Z,62.60
2019-05-14T22:13:45.406Z,62.70
2019-05-14T22:16:12.538Z,62.70
2019-05-14T22:18:39.757Z,62.60
2019-05-14T22:21:08.843Z,62.70
2019-05-14T22:23:38.799Z,62.80
2019-05-14T22:26:05.834Z,62.80
2019-05-14T22:28:33.903Z,62.70
2019-05-14T22:31:01.315Z,62.70
2019-05-14T22:33:28.518Z,62.70
2019-05-14T22:35:57.928Z,62.70
2019-05-14T22:38:29.160Z,62.70
2019-05-14T22:40:59.048Z,62.70
2019-05-14T22:43:28.970Z,62.60
2019-05-14T22:45:59.063Z,62.70
2019-05-14T22:48:29.938Z,62.70
2019-05-14T22:50:59.232Z,62.60
2019-05-14T22:53:30.359Z,62.70
2019-05-14T22:56:00.737Z,62.60
2019-05-14T22:58:28.861Z,62.70
2019-05-14T23:01:12.882Z,62.70
2019-05-14T23:03:28.960Z,62.70
2019-05-14T23:05:55.068Z,62.70
2019-05-14T23:08:22.065Z,62.70
2019-05-14T23:10:50.285Z,62.60
2019-05-14T23:13:18.607Z,62.70
2019-05-14T23:15:48.137Z,62.70
2019-05-14T23:18:14.897Z,62.70
2019-05-14T23:20:43.093Z,62.60
2019-05-14T23:23:11.298Z,62.70
2019-05-14T23:25:39.067Z,62.50
2019-05-14T23:28:08.335Z,62.60
2019-05-14T23:30:34.999Z,62.70
2019-05-14T23:33:02.518Z,62.70
2019-05-14T23:35:30.644Z,62.60
2019-05-14T23:37:58.716Z,62.70
2019-05-14T23:40:28.748Z,62.70
2019-05-14T23:42:58.607Z,62.60
2019-05-14T23:45:25.238Z,62.70
2019-05-14T23:47:53.198Z,62.70
2019-05-14T23:50:21.373Z,62.70
2019-05-14T23:52:49.504Z,62.70
2019-05-14T23:55:18.059Z,62.70
2019-05-14T23:57:48.136Z,62.70
